sensor_id;sensor_type;location;lat;lon;timestamp;pressure;altitude;pressure_sealevel;temperature;humidity
11268;BME280;49397;47.474;9.416;2023-06-22T00:00:45;95350.56;;;20.33;75.69
11268;BME280;49397;47.474;9.416;2023-06-22T00:03:10;95350.44;;;20.22;76.66
11268;BME280;49397;47.474;9.416;2023-06-22T00:05:36;95344.03;;;20.07;76.41
11268;BME280;49397;47.474;9.416;2023-06-22T00:08:04;95347.97;;;20.10;76.87
11268;BME280;49397;47.474;9.416;2023-06-22T00:10:30;95345.78;;;20.23;76.34
11268;BME280;49397;47.474;9.416;2023-06-22T00:12:56;95348.28;;;20.35;75.43
11268;BME280;49397;47.474;9.416;2023-06-22T00:15:22;95352.09;;;20.30;75.96
11268;BME280;49397;47.474;9.416;2023-06-22T00:17:47;95349.94;;;20.17;76.81
11268;BME280;49397;47.474;9.416;2023-06-22T00:20:13;95354.63;;;20.16;76.73
11268;BME280;49397;47.474;9.416;2023-06-22T00:22:39;95354.53;;;20.09;76.99
11268;BME280;49397;47.474;9.416;2023-06-22T00:25:08;95357.25;;;20.09;77.02
11268;BME280;49397;47.474;9.416;2023-06-22T00:27:34;95344.75;;;20.04;76.94
11268;BME280;49397;47.474;9.416;2023-06-22T00:30:00;95345.69;;;20.16;76.86
11268;BME280;49397;47.474;9.416;2023-06-22T00:32:26;95356.22;;;20.21;76.20
11268;BME280;49397;47.474;9.416;2023-06-22T00:34:51;95354.66;;;20.20;75.94
11268;BME280;49397;47.474;9.416;2023-06-22T00:37:17;95360.00;;;20.13;76.01
11268;BME280;49397;47.474;9.416;2023-06-22T00:39:43;95357.84;;;19.95;77.04
11268;BME280;49397;47.474;9.416;2023-06-22T00:42:08;95359.66;;;19.88;77.23
11268;BME280;49397;47.474;9.416;2023-06-22T00:44:35;95361.97;;;19.86;77.41
11268;BME280;49397;47.474;9.416;2023-06-22T00:47:01;95362.09;;;19.67;78.83
11268;BME280;49397;47.474;9.416;2023-06-22T00:49:26;95361.78;;;19.72;78.08
11268;BME280;49397;47.474;9.416;2023-06-22T00:51:52;95355.13;;;19.69;78.25
11268;BME280;49397;47.474;9.416;2023-06-22T00:54:18;95358.97;;;19.65;78.76
11268;BME280;49397;47.474;9.416;2023-06-22T00:56:53;95365.75;;;19.78;77.94
11268;BME280;49397;47.474;9.416;2023-06-22T00:59:23;95359.53;;;19.77;77.98
11268;BME280;49397;47.474;9.416;2023-06-22T01:01:49;95368.00;;;19.76;77.58
11268;BME280;49397;47.474;9.416;2023-06-22T01:04:14;95354.22;;;19.84;77.52
11268;BME280;49397;47.474;9.416;2023-06-22T01:06:54;95359.06;;;19.72;78.24
11268;BME280;49397;47.474;9.416;2023-06-22T01:09:30;95352.22;;;19.81;77.23
11268;BME280;49397;47.474;9.416;2023-06-22T01:12:02;95361.81;;;19.75;78.53
11268;BME280;49397;47.474;9.416;2023-06-22T01:14:39;95362.91;;;19.71;78.49
11268;BME280;49397;47.474;9.416;2023-06-22T01:17:08;95350.03;;;19.64;78.64
11268;BME280;49397;47.474;9.416;2023-06-22T01:22:07;95368.81;;;19.50;79.68
11268;BME280;49397;47.474;9.416;2023-06-22T01:27:56;95365.41;;;19.30;80.56
11268;BME280;49397;47.474;9.416;2023-06-22T01:30:27;95374.00;;;19.36;79.51
11268;BME280;49397;47.474;9.416;2023-06-22T01:32:56;95377.31;;;19.26;80.66
11268;BME280;49397;47.474;9.416;2023-06-22T01:35:23;95383.03;;;19.21;80.04
11268;BME280;49397;47.474;9.416;2023-06-22T01:37:49;95382.25;;;19.20;80.39
11268;BME280;49397;47.474;9.416;2023-06-22T01:40:15;95381.03;;;19.18;80.59
11268;BME280;49397;47.474;9.416;2023-06-22T01:42:42;95375.25;;;19.19;80.59
11268;BME280;49397;47.474;9.416;2023-06-22T01:45:10;95385.75;;;19.21;80.35
11268;BME280;49397;47.474;9.416;2023-06-22T01:47:36;95396.47;;;19.36;79.85
11268;BME280;49397;47.474;9.416;2023-06-22T01:50:03;95385.19;;;19.34;80.06
11268;BME280;49397;47.474;9.416;2023-06-22T01:52:29;95390.88;;;19.48;79.71
11268;BME280;49397;47.474;9.416;2023-06-22T01:54:54;95398.94;;;19.45;79.00
11268;BME280;49397;47.474;9.416;2023-06-22T01:57:20;95396.47;;;19.36;79.21
11268;BME280;49397;47.474;9.416;2023-06-22T02:00:12;95398.56;;;19.24;79.84
11268;BME280;49397;47.474;9.416;2023-06-22T02:02:54;95393.75;;;19.14;81.06
11268;BME280;49397;47.474;9.416;2023-06-22T02:05:23;95393.50;;;19.22;81.06
11268;BME280;49397;47.474;9.416;2023-06-22T02:08:00;95397.84;;;19.27;80.11
11268;BME280;49397;47.474;9.416;2023-06-22T02:10:27;95400.31;;;19.35;79.16
11268;BME280;49397;47.474;9.416;2023-06-22T02:12:54;95409.56;;;19.34;79.61
11268;BME280;49397;47.474;9.416;2023-06-22T02:15:20;95414.47;;;19.48;79.44
11268;BME280;49397;47.474;9.416;2023-06-22T02:17:47;95412.13;;;19.46;79.36
11268;BME280;49397;47.474;9.416;2023-06-22T02:20:14;95410.31;;;19.54;79.21
11268;BME280;49397;47.474;9.416;2023-06-22T02:22:40;95418.75;;;19.49;79.74
11268;BME280;49397;47.474;9.416;2023-06-22T02:25:06;95414.47;;;19.48;79.10
11268;BME280;49397;47.474;9.416;2023-06-22T02:27:31;95416.34;;;19.44;79.76
11268;BME280;49397;47.474;9.416;2023-06-22T02:29:57;95415.56;;;19.43;79.09
11268;BME280;49397;47.474;9.416;2023-06-22T02:32:22;95418.13;;;19.36;79.61
11268;BME280;49397;47.474;9.416;2023-06-22T02:34:48;95419.22;;;19.32;79.21
11268;BME280;49397;47.474;9.416;2023-06-22T02:37:14;95424.16;;;19.26;79.52
11268;BME280;49397;47.474;9.416;2023-06-22T02:39:42;95423.63;;;19.17;79.81
11268;BME280;49397;47.474;9.416;2023-06-22T02:42:08;95411.63;;;19.18;79.91
11268;BME280;49397;47.474;9.416;2023-06-22T02:44:36;95421.44;;;19.26;79.59
11268;BME280;49397;47.474;9.416;2023-06-22T02:47:01;95414.09;;;19.27;78.87
11268;BME280;49397;47.474;9.416;2023-06-22T02:49:27;95420.25;;;19.24;78.85
11268;BME280;49397;47.474;9.416;2023-06-22T02:51:52;95418.63;;;19.19;79.91
11268;BME280;49397;47.474;9.416;2023-06-22T02:54:19;95430.53;;;19.15;80.56
11268;BME280;49397;47.474;9.416;2023-06-22T02:56:44;95421.97;;;19.13;79.43
11268;BME280;49397;47.474;9.416;2023-06-22T02:59:10;95415.88;;;18.96;80.43
11268;BME280;49397;47.474;9.416;2023-06-22T03:01:36;95425.03;;;18.88;80.99
11268;BME280;49397;47.474;9.416;2023-06-22T03:04:06;95435.97;;;18.95;81.27
11268;BME280;49397;47.474;9.416;2023-06-22T03:06:33;95438.25;;;19.13;79.56
11268;BME280;49397;47.474;9.416;2023-06-22T03:09:04;95434.69;;;19.09;80.41
11268;BME280;49397;47.474;9.416;2023-06-22T03:11:33;95426.41;;;19.21;80.07
11268;BME280;49397;47.474;9.416;2023-06-22T03:14:00;95432.56;;;19.21;79.02
11268;BME280;49397;47.474;9.416;2023-06-22T03:16:26;95430.78;;;19.29;78.26
11268;BME280;49397;47.474;9.416;2023-06-22T03:18:52;95415.91;;;19.19;79.57
11268;BME280;49397;47.474;9.416;2023-06-22T03:21:22;95407.97;;;19.30;78.46
11268;BME280;49397;47.474;9.416;2023-06-22T03:23:48;95414.25;;;19.37;78.42
11268;BME280;49397;47.474;9.416;2023-06-22T03:26:16;95411.56;;;19.37;77.66
11268;BME280;49397;47.474;9.416;2023-06-22T03:28:42;95409.88;;;19.29;77.81
11268;BME280;49397;47.474;9.416;2023-06-22T03:31:08;95414.94;;;19.31;77.49
11268;BME280;49397;47.474;9.416;2023-06-22T03:33:33;95413.50;;;19.14;78.45
11268;BME280;49397;47.474;9.416;2023-06-22T03:35:58;95412.22;;;19.08;78.67
11268;BME280;49397;47.474;9.416;2023-06-22T03:38:24;95410.91;;;19.21;77.86
11268;BME280;49397;47.474;9.416;2023-06-22T03:40:50;95403.56;;;19.22;78.56
11268;BME280;49397;47.474;9.416;2023-06-22T03:43:15;95399.41;;;19.28;78.08
11268;BME280;49397;47.474;9.416;2023-06-22T03:45:40;95415.06;;;19.38;77.72
11268;BME280;49397;47.474;9.416;2023-06-22T03:48:06;95410.22;;;19.28;78.52
11268;BME280;49397;47.474;9.416;2023-06-22T03:50:31;95413.38;;;19.30;77.96
11268;BME280;49397;47.474;9.416;2023-06-22T03:52:57;95410.13;;;19.21;78.06
11268;BME280;49397;47.474;9.416;2023-06-22T03:55:22;95404.28;;;19.19;78.22
11268;BME280;49397;47.474;9.416;2023-06-22T03:57:48;95405.47;;;19.21;78.56
11268;BME280;49397;47.474;9.416;2023-06-22T04:00:14;95408.91;;;19.18;77.90
11268;BME280;49397;47.474;9.416;2023-06-22T04:02:41;95406.09;;;19.11;77.76
11268;BME280;49397;47.474;9.416;2023-06-22T04:05:09;95412.22;;;19.08;78.33
11268;BME280;49397;47.474;9.416;2023-06-22T04:07:34;95413.84;;;19.13;79.21
11268;BME280;49397;47.474;9.416;2023-06-22T04:10:06;95415.97;;;19.23;78.75
11268;BME280;49397;47.474;9.416;2023-06-22T04:12:32;95403.34;;;19.30;79.21
11268;BME280;49397;47.474;9.416;2023-06-22T04:14:58;95408.06;;;19.37;77.92
11268;BME280;49397;47.474;9.416;2023-06-22T04:17:23;95411.72;;;19.44;78.20
11268;BME280;49397;47.474;9.416;2023-06-22T04:19:50;95397.88;;;19.53;76.97
11268;BME280;49397;47.474;9.416;2023-06-22T04:22:16;95401.09;;;19.59;77.63
11268;BME280;49397;47.474;9.416;2023-06-22T04:24:41;95395.91;;;19.50;78.49
11268;BME280;49397;47.474;9.416;2023-06-22T04:27:07;95395.19;;;19.53;78.48
11268;BME280;49397;47.474;9.416;2023-06-22T04:29:32;95398.84;;;19.64;77.94
11268;BME280;49397;47.474;9.416;2023-06-22T04:31:58;95388.47;;;19.70;76.99
11268;BME280;49397;47.474;9.416;2023-06-22T04:34:28;95381.44;;;19.65;77.69
11268;BME280;49397;47.474;9.416;2023-06-22T04:36:54;95388.97;;;19.79;77.88
11268;BME280;49397;47.474;9.416;2023-06-22T04:39:20;95376.09;;;19.98;77.00
11268;BME280;49397;47.474;9.416;2023-06-22T04:41:45;95361.53;;;20.14;76.36
11268;BME280;49397;47.474;9.416;2023-06-22T04:44:12;95367.50;;;20.23;76.85
11268;BME280;49397;47.474;9.416;2023-06-22T04:46:38;95361.28;;;20.22;77.23
11268;BME280;49397;47.474;9.416;2023-06-22T04:49:08;95359.19;;;20.38;76.57
11268;BME280;49397;47.474;9.416;2023-06-22T04:51:44;95363.97;;;20.52;76.42
11268;BME280;49397;47.474;9.416;2023-06-22T04:54:09;95354.97;;;20.44;76.60
11268;BME280;49397;47.474;9.416;2023-06-22T04:56:35;95358.47;;;20.45;76.55
11268;BME280;49397;47.474;9.416;2023-06-22T04:59:00;95371.75;;;20.53;76.53
11268;BME280;49397;47.474;9.416;2023-06-22T05:01:26;95358.19;;;20.53;76.63
11268;BME280;49397;47.474;9.416;2023-06-22T05:03:52;95359.38;;;20.56;76.59
11268;BME280;49397;47.474;9.416;2023-06-22T05:06:22;95364.09;;;20.63;76.01
11268;BME280;49397;47.474;9.416;2023-06-22T05:08:54;95376.13;;;20.65;76.48
11268;BME280;49397;47.474;9.416;2023-06-22T05:11:25;95368.47;;;20.71;76.24
11268;BME280;49397;47.474;9.416;2023-06-22T05:13:50;95355.41;;;20.87;75.56
11268;BME280;49397;47.474;9.416;2023-06-22T05:16:16;95359.19;;;21.16;74.46
11268;BME280;49397;47.474;9.416;2023-06-22T05:18:41;95351.28;;;21.44;73.27
11268;BME280;49397;47.474;9.416;2023-06-22T05:21:08;95353.00;;;21.66;72.38
11268;BME280;49397;47.474;9.416;2023-06-22T05:23:34;95357.19;;;21.56;73.23
11268;BME280;49397;47.474;9.416;2023-06-22T05:25:59;95360.75;;;21.68;72.84
11268;BME280;49397;47.474;9.416;2023-06-22T05:28:25;95361.88;;;21.59;73.37
11268;BME280;49397;47.474;9.416;2023-06-22T05:30:50;95352.50;;;21.53;73.46
11268;BME280;49397;47.474;9.416;2023-06-22T05:33:16;95356.28;;;21.42;73.95
11268;BME280;49397;47.474;9.416;2023-06-22T05:35:41;95364.41;;;21.35;73.97
11268;BME280;49397;47.474;9.416;2023-06-22T05:38:07;95369.50;;;21.40;74.30
11268;BME280;49397;47.474;9.416;2023-06-22T05:40:33;95359.72;;;21.32;74.81
11268;BME280;49397;47.474;9.416;2023-06-22T05:42:58;95363.69;;;21.45;73.38
11268;BME280;49397;47.474;9.416;2023-06-22T05:45:25;95358.72;;;21.50;74.11
11268;BME280;49397;47.474;9.416;2023-06-22T05:47:51;95359.22;;;21.70;73.73
11268;BME280;49397;47.474;9.416;2023-06-22T05:50:16;95360.31;;;22.20;71.96
11268;BME280;49397;47.474;9.416;2023-06-22T05:52:42;95365.88;;;22.52;70.01
11268;BME280;49397;47.474;9.416;2023-06-22T05:55:08;95356.13;;;22.51;70.12
11268;BME280;49397;47.474;9.416;2023-06-22T05:57:33;95361.63;;;22.58;69.70
11268;BME280;49397;47.474;9.416;2023-06-22T05:59:59;95357.66;;;22.38;70.46
11268;BME280;49397;47.474;9.416;2023-06-22T06:02:24;95366.66;;;22.49;70.30
11268;BME280;49397;47.474;9.416;2023-06-22T06:04:50;95367.47;;;22.63;70.13
11268;BME280;49397;47.474;9.416;2023-06-22T06:07:18;95373.75;;;22.67;69.32
11268;BME280;49397;47.474;9.416;2023-06-22T06:09:43;95366.78;;;22.81;68.94
11268;BME280;49397;47.474;9.416;2023-06-22T06:12:09;95357.44;;;22.89;68.93
11268;BME280;49397;47.474;9.416;2023-06-22T06:14:34;95366.22;;;22.43;69.80
11268;BME280;49397;47.474;9.416;2023-06-22T06:17:00;95361.69;;;22.79;68.73
11268;BME280;49397;47.474;9.416;2023-06-22T06:19:25;95364.41;;;22.72;68.80
11268;BME280;49397;47.474;9.416;2023-06-22T06:21:51;95361.69;;;22.79;68.43
11268;BME280;49397;47.474;9.416;2023-06-22T06:24:16;95358.59;;;22.95;67.78
11268;BME280;49397;47.474;9.416;2023-06-22T06:26:42;95357.47;;;23.24;67.17
11268;BME280;49397;47.474;9.416;2023-06-22T06:29:07;95357.47;;;23.28;66.85
11268;BME280;49397;47.474;9.416;2023-06-22T06:31:33;95361.38;;;23.37;66.23
11268;BME280;49397;47.474;9.416;2023-06-22T06:33:58;95364.09;;;23.37;66.69
11268;BME280;49397;47.474;9.416;2023-06-22T06:36:24;95365.28;;;23.47;66.57
11268;BME280;49397;47.474;9.416;2023-06-22T06:38:49;95358.25;;;23.28;66.55
11268;BME280;49397;47.474;9.416;2023-06-22T06:41:16;95359.06;;;23.43;66.58
11268;BME280;49397;47.474;9.416;2023-06-22T06:43:41;95362.94;;;23.56;66.15
11268;BME280;49397;47.474;9.416;2023-06-22T06:46:10;95362.53;;;23.71;65.96
11268;BME280;49397;47.474;9.416;2023-06-22T06:48:35;95360.22;;;23.35;67.34
11268;BME280;49397;47.474;9.416;2023-06-22T06:51:01;95352.41;;;23.23;68.00
11268;BME280;49397;47.474;9.416;2023-06-22T06:53:26;95345.78;;;23.20;67.69
11268;BME280;49397;47.474;9.416;2023-06-22T06:55:53;95358.63;;;22.98;68.99
11268;BME280;49397;47.474;9.416;2023-06-22T06:58:19;95366.00;;;22.98;68.67
11268;BME280;49397;47.474;9.416;2023-06-22T07:00:44;95360.19;;;23.03;68.57
11268;BME280;49397;47.474;9.416;2023-06-22T07:03:10;95370.28;;;22.88;70.06
11268;BME280;49397;47.474;9.416;2023-06-22T07:05:35;95369.50;;;22.98;69.72
11268;BME280;49397;47.474;9.416;2023-06-22T07:08:01;95369.53;;;22.88;69.88
11268;BME280;49397;47.474;9.416;2023-06-22T07:10:28;95371.81;;;22.86;70.09
11268;BME280;49397;47.474;9.416;2023-06-22T07:12:54;95377.66;;;22.74;69.87
11268;BME280;49397;47.474;9.416;2023-06-22T07:15:20;95379.59;;;22.77;70.20
11268;BME280;49397;47.474;9.416;2023-06-22T07:17:45;95381.19;;;22.99;70.07
11268;BME280;49397;47.474;9.416;2023-06-22T07:20:11;95378.44;;;22.74;69.42
11268;BME280;49397;47.474;9.416;2023-06-22T07:22:42;95374.19;;;22.87;70.07
11268;BME280;49397;47.474;9.416;2023-06-22T07:25:08;95375.38;;;23.14;69.40
11268;BME280;49397;47.474;9.416;2023-06-22T07:27:43;95378.50;;;23.24;68.77
11268;BME280;49397;47.474;9.416;2023-06-22T07:30:10;95371.09;;;23.24;68.66
11268;BME280;49397;47.474;9.416;2023-06-22T07:32:36;95362.94;;;23.10;69.33
11268;BME280;49397;47.474;9.416;2023-06-22T07:35:02;95372.63;;;23.04;69.60
11268;BME280;49397;47.474;9.416;2023-06-22T07:37:28;95371.88;;;23.10;69.21
11268;BME280;49397;47.474;9.416;2023-06-22T07:39:55;95365.25;;;23.11;70.03
11268;BME280;49397;47.474;9.416;2023-06-22T07:42:27;95366.00;;;22.84;70.23
11268;BME280;49397;47.474;9.416;2023-06-22T07:44:55;95363.69;;;23.17;69.10
11268;BME280;49397;47.474;9.416;2023-06-22T07:47:21;95364.91;;;23.45;68.91
11268;BME280;49397;47.474;9.416;2023-06-22T07:49:50;95381.28;;;23.45;68.82
11268;BME280;49397;47.474;9.416;2023-06-22T07:52:16;95375.38;;;23.36;67.99
11268;BME280;49397;47.474;9.416;2023-06-22T07:54:41;95382.81;;;23.39;67.97
11268;BME280;49397;47.474;9.416;2023-06-22T07:57:06;95377.75;;;23.62;67.66
11268;BME280;49397;47.474;9.416;2023-06-22T07:59:32;95380.84;;;23.92;67.12
11268;BME280;49397;47.474;9.416;2023-06-22T08:01:57;95380.03;;;24.16;66.50
11268;BME280;49397;47.474;9.416;2023-06-22T08:04:23;95384.72;;;24.12;65.71
11268;BME280;49397;47.474;9.416;2023-06-22T08:06:48;95379.09;;;24.55;65.09
11268;BME280;49397;47.474;9.416;2023-06-22T08:09:14;95377.19;;;24.41;65.58
11268;BME280;49397;47.474;9.416;2023-06-22T08:11:40;95381.19;;;24.15;65.09
11268;BME280;49397;47.474;9.416;2023-06-22T08:14:05;95388.56;;;24.33;64.55
11268;BME280;49397;47.474;9.416;2023-06-22T08:16:31;95393.13;;;24.60;63.92
11268;BME280;49397;47.474;9.416;2023-06-22T08:18:56;95403.38;;;24.35;64.81
11268;BME280;49397;47.474;9.416;2023-06-22T08:21:22;95421.78;;;24.13;66.39
11268;BME280;49397;47.474;9.416;2023-06-22T08:23:48;95445.19;;;24.00;66.74
11268;BME280;49397;47.474;9.416;2023-06-22T08:26:14;95482.63;;;24.10;66.75
11268;BME280;49397;47.474;9.416;2023-06-22T08:28:39;95471.31;;;23.98;66.48
11268;BME280;49397;47.474;9.416;2023-06-22T08:31:05;95468.97;;;24.10;66.66
11268;BME280;49397;47.474;9.416;2023-06-22T08:33:30;95476.78;;;24.01;66.38
11268;BME280;49397;47.474;9.416;2023-06-22T08:35:57;95457.28;;;24.13;66.71
11268;BME280;49397;47.474;9.416;2023-06-22T08:38:23;95470.13;;;24.34;66.74
11268;BME280;49397;47.474;9.416;2023-06-22T08:40:48;95486.50;;;24.41;65.16
11268;BME280;49397;47.474;9.416;2023-06-22T08:43:14;95503.31;;;24.33;66.13
11268;BME280;49397;47.474;9.416;2023-06-22T08:45:40;95494.31;;;24.39;66.71
11268;BME280;49397;47.474;9.416;2023-06-22T08:48:05;95494.31;;;24.39;66.36
11268;BME280;49397;47.474;9.416;2023-06-22T08:50:31;95494.72;;;24.31;66.61
11268;BME280;49397;47.474;9.416;2023-06-22T08:52:56;95486.53;;;24.31;66.47
11268;BME280;49397;47.474;9.416;2023-06-22T08:55:22;95500.97;;;24.31;66.93
11268;BME280;49397;47.474;9.416;2023-06-22T08:57:47;95495.88;;;24.44;66.28
11268;BME280;49397;47.474;9.416;2023-06-22T09:00:13;95488.00;;;24.63;65.76
11268;BME280;49397;47.474;9.416;2023-06-22T09:02:42;95486.03;;;24.67;66.25
11268;BME280;49397;47.474;9.416;2023-06-22T09:05:08;95483.31;;;24.82;66.34
11268;BME280;49397;47.474;9.416;2023-06-22T09:07:34;95476.25;;;24.84;64.30
11268;BME280;49397;47.474;9.416;2023-06-22T09:09:59;95481.69;;;24.95;64.32
11268;BME280;49397;47.474;9.416;2023-06-22T09:12:26;95484.31;;;25.12;63.54
11268;BME280;49397;47.474;9.416;2023-06-22T09:14:53;95487.31;;;25.43;64.59
11268;BME280;49397;47.474;9.416;2023-06-22T09:17:19;95483.28;;;25.61;63.38
11268;BME280;49397;47.474;9.416;2023-06-22T09:19:44;95492.53;;;25.82;62.91
11268;BME280;49397;47.474;9.416;2023-06-22T09:22:10;95482.50;;;26.12;61.77
11268;BME280;49397;47.474;9.416;2023-06-22T09:24:35;95483.88;;;25.87;61.35
11268;BME280;49397;47.474;9.416;2023-06-22T09:27:01;95483.97;;;25.76;61.92
11268;BME280;49397;47.474;9.416;2023-06-22T09:29:26;95479.50;;;25.96;60.48
11268;BME280;49397;47.474;9.416;2023-06-22T09:31:52;95476.28;;;26.05;61.42
11268;BME280;49397;47.474;9.416;2023-06-22T09:34:21;95467.72;;;26.03;60.40
11268;BME280;49397;47.474;9.416;2023-06-22T09:36:46;95464.50;;;26.11;62.12
11268;BME280;49397;47.474;9.416;2023-06-22T09:39:12;95457.31;;;26.28;61.26
11268;BME280;49397;47.474;9.416;2023-06-22T09:41:37;95446.03;;;26.22;60.52
11268;BME280;49397;47.474;9.416;2023-06-22T09:44:03;95440.84;;;26.32;60.26
11268;BME280;49397;47.474;9.416;2023-06-22T09:46:29;95444.03;;;26.23;59.83
11268;BME280;49397;47.474;9.416;2023-06-22T09:48:54;95444.53;;;26.89;59.14
11268;BME280;49397;47.474;9.416;2023-06-22T09:51:20;95435.53;;;27.46;57.38
11268;BME280;49397;47.474;9.416;2023-06-22T09:53:47;95433.28;;;27.64;56.75
11268;BME280;49397;47.474;9.416;2023-06-22T09:56:13;95425.38;;;27.69;58.21
11268;BME280;49397;47.474;9.416;2023-06-22T09:58:44;95429.41;;;27.61;57.15
11268;BME280;49397;47.474;9.416;2023-06-22T10:01:10;95429.56;;;27.51;56.72
11268;BME280;49397;47.474;9.416;2023-06-22T10:03:36;95427.09;;;27.60;57.95
11268;BME280;49397;47.474;9.416;2023-06-22T10:06:02;95416.16;;;27.79;58.02
11268;BME280;49397;47.474;9.416;2023-06-22T10:08:27;95404.28;;;27.86;57.34
11268;BME280;49397;47.474;9.416;2023-06-22T10:10:53;95402.72;;;27.62;58.73
11268;BME280;49397;47.474;9.416;2023-06-22T10:13:18;95411.56;;;27.96;58.33
11268;BME280;49397;47.474;9.416;2023-06-22T10:15:44;95402.06;;;27.77;59.02
11268;BME280;49397;47.474;9.416;2023-06-22T10:18:16;95409.38;;;28.11;58.77
11268;BME280;49397;47.474;9.416;2023-06-22T10:20:42;95406.25;;;28.32;58.48
11268;BME280;49397;47.474;9.416;2023-06-22T10:23:08;95403.91;;;28.11;58.08
11268;BME280;49397;47.474;9.416;2023-06-22T10:25:33;95407.22;;;28.22;57.93
11268;BME280;49397;47.474;9.416;2023-06-22T10:27:59;95400.69;;;27.89;57.53
11268;BME280;49397;47.474;9.416;2023-06-22T10:30:24;95397.13;;;27.69;57.72
11268;BME280;49397;47.474;9.416;2023-06-22T10:32:50;95397.31;;;27.81;57.42
11268;BME280;49397;47.474;9.416;2023-06-22T10:35:15;95381.91;;;27.88;57.93
11268;BME280;49397;47.474;9.416;2023-06-22T10:37:44;95384.28;;;28.09;57.78
11268;BME280;49397;47.474;9.416;2023-06-22T10:40:14;95383.91;;;27.83;57.42
11268;BME280;49397;47.474;9.416;2023-06-22T10:42:41;95389.41;;;27.83;58.70
11268;BME280;49397;47.474;9.416;2023-06-22T10:45:07;95380.94;;;27.74;57.16
11268;BME280;49397;47.474;9.416;2023-06-22T10:47:33;95390.13;;;27.64;57.40
11268;BME280;49397;47.474;9.416;2023-06-22T10:49:59;95385.13;;;27.06;59.56
11268;BME280;49397;47.474;9.416;2023-06-22T10:52:24;95373.25;;;27.12;60.79
11268;BME280;49397;47.474;9.416;2023-06-22T10:54:50;95373.25;;;27.66;59.23
11268;BME280;49397;47.474;9.416;2023-06-22T10:57:15;95377.06;;;27.72;58.76
11268;BME280;49397;47.474;9.416;2023-06-22T10:59:41;95373.00;;;27.80;58.23
11268;BME280;49397;47.474;9.416;2023-06-22T11:02:06;95363.53;;;28.04;57.28
11268;BME280;49397;47.474;9.416;2023-06-22T11:04:32;95361.94;;;27.83;57.50
11268;BME280;49397;47.474;9.416;2023-06-22T11:06:57;95352.97;;;28.03;57.49
11268;BME280;49397;47.474;9.416;2023-06-22T11:09:23;95358.44;;;27.60;57.15
11268;BME280;49397;47.474;9.416;2023-06-22T11:11:50;95363.13;;;27.82;57.69
11268;BME280;49397;47.474;9.416;2023-06-22T11:14:15;95365.06;;;27.85;57.31
11268;BME280;49397;47.474;9.416;2023-06-22T11:16:41;95366.19;;;27.88;58.42
11268;BME280;49397;47.474;9.416;2023-06-22T11:19:06;95360.06;;;28.00;58.07
11268;BME280;49397;47.474;9.416;2023-06-22T11:21:32;95367.00;;;28.08;56.80
11268;BME280;49397;47.474;9.416;2023-06-22T11:23:58;95364.50;;;27.71;57.75
11268;BME280;49397;47.474;9.416;2023-06-22T11:26:25;95364.44;;;27.98;58.02
11268;BME280;49397;47.474;9.416;2023-06-22T11:28:52;95367.72;;;27.89;57.43
11268;BME280;49397;47.474;9.416;2023-06-22T11:31:18;95368.03;;;27.95;57.20
11268;BME280;49397;47.474;9.416;2023-06-22T11:33:44;95377.75;;;27.99;58.50
11268;BME280;49397;47.474;9.416;2023-06-22T11:36:11;95369.13;;;27.77;59.31
11268;BME280;49397;47.474;9.416;2023-06-22T11:38:37;95367.38;;;27.64;57.98
11268;BME280;49397;47.474;9.416;2023-06-22T11:41:08;95368.03;;;27.71;58.37
11268;BME280;49397;47.474;9.416;2023-06-22T11:43:34;95366.34;;;27.54;58.76
11268;BME280;49397;47.474;9.416;2023-06-22T11:46:04;95371.69;;;27.38;58.32
11268;BME280;49397;47.474;9.416;2023-06-22T11:48:30;95368.50;;;27.16;59.83
11268;BME280;49397;47.474;9.416;2023-06-22T11:50:56;95371.25;;;27.16;59.70
11268;BME280;49397;47.474;9.416;2023-06-22T11:53:23;95375.69;;;26.76;60.82
11268;BME280;49397;47.474;9.416;2023-06-22T11:55:49;95372.25;;;26.69;61.83
11268;BME280;49397;47.474;9.416;2023-06-22T11:58:15;95364.03;;;26.69;60.86
11268;BME280;49397;47.474;9.416;2023-06-22T12:00:40;95371.28;;;26.52;61.30
11268;BME280;49397;47.474;9.416;2023-06-22T12:03:07;95369.00;;;26.47;61.45
11268;BME280;49397;47.474;9.416;2023-06-22T12:05:33;95370.41;;;26.28;62.03
11268;BME280;49397;47.474;9.416;2023-06-22T12:07:58;95368.50;;;26.25;62.81
11268;BME280;49397;47.474;9.416;2023-06-22T12:10:25;95373.16;;;26.28;62.59
11268;BME280;49397;47.474;9.416;2023-06-22T12:12:51;95379.16;;;26.13;62.98
11268;BME280;49397;47.474;9.416;2023-06-22T12:15:17;95370.41;;;26.28;62.46
11268;BME280;49397;47.474;9.416;2023-06-22T12:17:42;95370.44;;;26.25;63.45
11268;BME280;49397;47.474;9.416;2023-06-22T12:20:08;95361.09;;;26.22;63.52
11268;BME280;49397;47.474;9.416;2023-06-22T12:22:34;95373.88;;;26.33;62.05
11268;BME280;49397;47.474;9.416;2023-06-22T12:25:01;95367.72;;;26.55;62.20
11268;BME280;49397;47.474;9.416;2023-06-22T12:27:26;95367.03;;;26.78;61.73
11268;BME280;49397;47.474;9.416;2023-06-22T12:29:52;95364.94;;;26.93;60.30
11268;BME280;49397;47.474;9.416;2023-06-22T12:32:17;95365.69;;;26.93;60.19
11268;BME280;49397;47.474;9.416;2023-06-22T12:34:44;95372.47;;;26.85;60.83
11268;BME280;49397;47.474;9.416;2023-06-22T12:37:10;95370.41;;;26.93;61.27
11268;BME280;49397;47.474;9.416;2023-06-22T12:39:36;95365.97;;;27.02;59.74
11268;BME280;49397;47.474;9.416;2023-06-22T12:42:01;95365.75;;;26.90;59.93
11268;BME280;49397;47.474;9.416;2023-06-22T12:44:27;95368.13;;;26.88;60.21
11268;BME280;49397;47.474;9.416;2023-06-22T12:46:52;95363.50;;;26.81;59.96
11268;BME280;49397;47.474;9.416;2023-06-22T12:49:18;95365.81;;;26.86;58.81
11268;BME280;49397;47.474;9.416;2023-06-22T12:51:44;95374.06;;;27.09;59.83
11268;BME280;49397;47.474;9.416;2023-06-22T12:54:10;95363.31;;;26.95;60.48
11268;BME280;49397;47.474;9.416;2023-06-22T12:56:37;95381.19;;;27.33;60.68
11268;BME280;49397;47.474;9.416;2023-06-22T12:59:04;95374.03;;;27.40;59.46
11268;BME280;49397;47.474;9.416;2023-06-22T13:01:30;95374.72;;;27.47;58.98